createdAt,value
2019-02-04T00:02:16.547Z,26.90
2019-02-04T00:04:46.636Z,28.27
2019-02-04T00:07:16.866Z,26.47
2019-02-04T00:09:46.869Z,26.90
2019-02-04T00:12:29.187Z,26.73
2019-02-04T00:15:00.965Z,25.20
2019-02-04T00:17:32.304Z,26.52
2019-02-04T00:20:14.445Z,24.77
2019-02-04T00:22:44.567Z,23.10
2019-02-04T00:25:14.807Z,24.27
2019-02-04T00:27:44.795Z,21.25
2019-02-04T00:30:16.338Z,24.20
2019-02-04T00:32:46.457Z,23.57
2019-02-04T00:35:17.126Z,21.42
2019-02-04T00:37:59.229Z,21.47
2019-02-04T00:40:30.328Z,21.97
2019-02-04T00:43:00.322Z,22.03
2019-02-04T00:45:30.600Z,22.10
2019-02-04T00:48:00.616Z,21.43
2019-02-04T00:50:30.691Z,20.97
2019-02-04T00:53:01.008Z,19.97
2019-02-04T00:55:31.172Z,18.47
2019-02-04T00:58:02.383Z,19.60
2019-02-04T01:00:33.833Z,17.77
2019-02-04T01:03:05.292Z,17.35
2019-02-04T01:05:36.793Z,15.83
2019-02-04T01:08:06.831Z,15.87
2019-02-04T01:10:37.176Z,15.88
2019-02-04T01:13:07.371Z,15.43
2019-02-04T01:15:37.732Z,14.03
2019-02-04T01:18:07.898Z,12.98
2019-02-04T01:20:38.581Z,12.05
2019-02-04T01:23:09.671Z,13.43
2019-02-04T01:25:40.020Z,11.80
2019-02-04T01:28:10.240Z,10.77
2019-02-04T01:30:40.383Z,10.53
2019-02-04T01:33:11.146Z,10.55
2019-02-04T01:35:41.286Z,10.57
2019-02-04T01:38:11.330Z,10.30
2019-02-04T01:40:41.425Z,10.23
2019-02-04T01:43:11.735Z,8.85
2019-02-04T01:45:41.760Z,9.67
2019-02-04T01:48:13.459Z,8.40
2019-02-04T01:50:43.653Z,8.17
2019-02-04T01:53:13.720Z,9.53
2019-02-04T01:55:43.691Z,8.30
2019-02-04T01:58:14.875Z,9.10
2019-02-04T02:00:45.114Z,8.13
2019-02-04T02:03:15.122Z,7.90
2019-02-04T02:05:45.176Z,8.93
2019-02-04T02:08:15.399Z,8.77
2019-02-04T02:10:45.549Z,8.70
2019-02-04T02:13:15.933Z,8.80
2019-02-04T02:15:45.907Z,8.33
2019-02-04T02:18:15.953Z,7.93
2019-02-04T02:20:46.026Z,7.27
2019-02-04T02:23:15.997Z,7.77
2019-02-04T02:25:46.078Z,7.33
2019-02-04T02:28:16.032Z,7.47
2019-02-04T02:30:45.993Z,7.07
2019-02-04T02:33:16.090Z,6.60
2019-02-04T02:35:46.089Z,7.23
2019-02-04T02:38:16.304Z,7.20
2019-02-04T02:40:46.785Z,7.40
2019-02-04T02:43:16.842Z,6.80
2019-02-04T02:45:46.980Z,7.30
2019-02-04T02:48:17.494Z,6.83
2019-02-04T02:50:47.530Z,7.70
2019-02-04T02:53:17.663Z,7.60
2019-02-04T02:55:48.021Z,7.43
2019-02-04T02:58:18.145Z,7.10
2019-02-04T03:00:48.160Z,6.77
2019-02-04T03:03:18.124Z,6.53
2019-02-04T03:05:48.227Z,7.00
2019-02-04T03:08:18.686Z,6.47
2019-02-04T03:10:48.778Z,6.17
2019-02-04T03:13:18.905Z,6.57
2019-02-04T03:15:48.963Z,6.27
2019-02-04T03:18:19.112Z,6.50
2019-02-04T03:20:49.461Z,5.97
2019-02-04T03:23:19.422Z,6.17
2019-02-04T03:25:49.426Z,6.10
2019-02-04T03:28:19.368Z,5.80
2019-02-04T03:30:50.957Z,5.73
2019-02-04T03:33:20.986Z,5.72
2019-02-04T03:35:51.078Z,5.77
2019-02-04T03:38:21.162Z,5.10
2019-02-04T03:40:51.246Z,5.57
2019-02-04T03:43:21.439Z,5.23
2019-02-04T03:45:51.518Z,5.30
2019-02-04T03:48:21.887Z,5.03
2019-02-04T03:50:52.537Z,4.78
2019-02-04T03:53:22.559Z,5.17
2019-02-04T03:55:52.745Z,4.50
2019-02-04T03:58:23.002Z,5.13
2019-02-04T04:00:53.479Z,4.73
2019-02-04T04:03:23.539Z,5.37
2019-02-04T04:05:53.675Z,4.90
2019-02-04T04:08:23.748Z,5.67
2019-02-04T04:10:53.785Z,5.53
2019-02-04T04:13:25.320Z,5.97
2019-02-04T04:15:55.301Z,5.53
2019-02-04T04:18:25.623Z,4.87
2019-02-04T04:20:55.776Z,4.63
2019-02-04T04:23:25.713Z,5.63
2019-02-04T04:25:55.675Z,4.77
2019-02-04T04:28:25.685Z,5.77
2019-02-04T04:30:55.802Z,5.63
2019-02-04T04:33:25.791Z,5.93
2019-02-04T04:35:55.998Z,5.27
2019-02-04T04:38:25.920Z,5.87
2019-02-04T04:40:56.098Z,5.33
2019-02-04T04:43:26.072Z,5.70
2019-02-04T04:45:56.092Z,5.77
2019-02-04T04:48:26.846Z,5.87
2019-02-04T04:50:57.038Z,6.00
2019-02-04T04:53:27.030Z,5.13
2019-02-04T04:55:57.123Z,7.33
2019-02-04T04:58:27.415Z,5.53
2019-02-04T05:00:57.583Z,5.10
2019-02-04T05:03:27.695Z,5.57
2019-02-04T05:05:58.903Z,6.00
2019-02-04T05:08:29.182Z,5.73
2019-02-04T05:11:00.963Z,5.20
2019-02-04T05:13:30.990Z,5.50
2019-02-04T05:16:01.068Z,5.63
2019-02-04T05:18:37.713Z,4.97
2019-02-04T05:21:03.406Z,5.47
2019-02-04T05:23:33.616Z,6.20
2019-02-04T05:26:04.862Z,5.60
2019-02-04T05:28:34.780Z,5.20
2019-02-04T05:31:04.843Z,5.30
2019-02-04T05:33:35.012Z,5.00
2019-02-04T05:36:05.230Z,6.60
2019-02-04T05:38:35.359Z,6.80
2019-02-04T05:41:05.789Z,6.83
2019-02-04T05:43:35.902Z,5.40
2019-02-04T05:46:06.139Z,5.43
2019-02-04T05:48:36.152Z,5.77
2019-02-04T05:51:06.197Z,5.03
2019-02-04T05:53:36.293Z,6.10
2019-02-04T05:56:06.628Z,6.00
2019-02-04T05:58:36.899Z,5.50
2019-02-04T06:01:07.432Z,5.70
2019-02-04T06:03:37.601Z,5.80
2019-02-04T06:06:07.631Z,6.13
2019-02-04T06:08:37.784Z,7.10
2019-02-04T06:11:07.973Z,5.40
2019-02-04T06:13:38.179Z,6.50
2019-02-04T06:16:08.484Z,6.23
2019-02-04T06:18:38.477Z,6.47
2019-02-04T06:21:08.636Z,6.33
2019-02-04T06:23:38.695Z,6.50
2019-02-04T06:26:08.797Z,5.97
2019-02-04T06:28:39.068Z,6.77
2019-02-04T06:31:09.146Z,6.60
2019-02-04T06:33:39.146Z,7.83
2019-02-04T06:36:09.202Z,7.43
2019-02-04T06:38:39.230Z,6.77
2019-02-04T06:41:09.512Z,6.90
2019-02-04T06:43:39.513Z,7.37
2019-02-04T06:46:10.539Z,6.50
2019-02-04T06:48:40.479Z,6.77
2019-02-04T06:51:10.860Z,7.20
2019-02-04T06:53:40.946Z,6.80
2019-02-04T06:56:11.285Z,6.90
2019-02-04T06:58:42.303Z,6.30
2019-02-04T07:01:12.960Z,6.97
2019-02-04T07:03:43.118Z,7.67
2019-02-04T07:06:14.861Z,9.67
2019-02-04T07:08:45.737Z,7.93
2019-02-04T07:11:15.808Z,8.43
2019-02-04T07:13:45.981Z,8.33
2019-02-04T07:16:16.353Z,7.37
2019-02-04T07:18:46.632Z,7.00
2019-02-04T07:21:17.188Z,7.80
2019-02-04T07:23:47.368Z,7.40
2019-02-04T07:26:19.444Z,7.90
2019-02-04T07:28:49.575Z,8.37
2019-02-04T07:31:19.711Z,8.37
2019-02-04T07:33:49.924Z,8.37
2019-02-04T07:36:20.424Z,8.70
2019-02-04T07:38:50.643Z,9.23
2019-02-04T07:41:22.458Z,10.03
2019-02-04T07:43:53.983Z,10.10
2019-02-04T07:46:25.067Z,10.90
2019-02-04T07:48:55.451Z,11.00
2019-02-04T07:51:27.330Z,9.73
2019-02-04T07:53:57.358Z,9.27
2019-02-04T07:56:27.559Z,10.00
2019-02-04T07:58:57.660Z,10.27
2019-02-04T08:01:27.816Z,10.70
2019-02-04T08:03:58.553Z,10.23
2019-02-04T08:06:28.623Z,10.67
2019-02-04T08:08:58.998Z,10.47
2019-02-04T08:11:29.288Z,10.23
2019-02-04T08:13:59.426Z,11.47
2019-02-04T08:16:30.195Z,11.20
2019-02-04T08:19:00.299Z,12.80
2019-02-04T08:21:30.492Z,11.67
2019-02-04T08:24:00.795Z,12.33
2019-02-04T08:26:31.083Z,12.10
2019-02-04T08:29:01.179Z,11.00
2019-02-04T08:31:33.006Z,12.20
2019-02-04T08:34:06.025Z,11.63
2019-02-04T08:39:10.112Z,11.80
2019-02-04T08:41:40.235Z,10.83
2019-02-04T08:44:10.696Z,10.63
2019-02-04T08:46:40.881Z,11.47
2019-02-04T08:49:11.271Z,11.50
2019-02-04T08:51:41.374Z,11.73
2019-02-04T08:54:11.620Z,16.57
2019-02-04T08:56:43.126Z,11.60
2019-02-04T08:59:13.417Z,11.90
2019-02-04T09:01:43.619Z,11.93
2019-02-04T09:04:13.855Z,11.53
2019-02-04T09:06:44.140Z,11.00
2019-02-04T09:09:15.140Z,12.13
2019-02-04T09:11:45.579Z,13.10
2019-02-04T09:14:15.830Z,12.58
2019-02-04T09:16:47.350Z,11.93
2019-02-04T09:19:17.496Z,11.40
2019-02-04T09:21:49.349Z,11.43
2019-02-04T09:24:20.461Z,11.30
2019-02-04T09:26:50.697Z,10.50
2019-02-04T09:29:20.808Z,13.00
2019-02-04T09:31:50.920Z,13.10
2019-02-04T09:34:23.463Z,12.33
2019-02-04T09:37:14.988Z,12.67
2019-02-04T09:39:46.470Z,11.77
2019-02-04T09:42:25.103Z,11.57
2019-02-04T09:45:09.661Z,11.47
2019-02-04T09:47:49.499Z,12.40
2019-02-04T09:50:35.209Z,12.57
2019-02-04T09:53:09.551Z,11.47
2019-02-04T09:55:40.049Z,10.93
2019-02-04T09:58:10.334Z,11.07
2019-02-04T10:00:40.445Z,11.40
2019-02-04T10:03:10.672Z,10.40
2019-02-04T10:05:41.143Z,9.90
2019-02-04T10:08:11.320Z,11.75
2019-02-04T10:10:42.492Z,11.83
2019-02-04T10:13:12.811Z,10.47
2019-02-04T10:15:45.686Z,11.80
2019-02-04T10:18:15.081Z,11.63
2019-02-04T10:20:45.792Z,10.28
2019-02-04T10:23:27.347Z,11.10
2019-02-04T10:25:58.986Z,10.87
2019-02-04T10:28:29.326Z,10.73
2019-02-04T10:31:00.947Z,10.40
2019-02-04T10:33:31.402Z,10.43
2019-02-04T10:36:01.428Z,10.87
2019-02-04T10:38:31.608Z,11.97
2019-02-04T10:41:03.090Z,11.55
2019-02-04T10:43:33.721Z,10.67
2019-02-04T10:46:04.762Z,11.10
2019-02-04T10:48:35.340Z,10.63
2019-02-04T10:51:05.752Z,10.90
2019-02-04T10:53:39.474Z,10.03
2019-02-04T10:56:09.918Z,10.88
2019-02-04T10:58:45.498Z,10.27
2019-02-04T11:01:15.601Z,10.47
2019-02-04T11:03:45.840Z,11.63
2019-02-04T11:06:16.075Z,10.82
2019-02-04T11:08:46.366Z,12.10
2019-02-04T11:11:16.405Z,12.70
2019-02-04T11:13:58.153Z,12.03
2019-02-04T11:16:28.448Z,11.50
2019-02-04T11:18:58.694Z,13.95
2019-02-04T11:21:29.085Z,13.77
2019-02-04T11:24:00.084Z,13.30
2019-02-04T11:26:30.485Z,13.35
2019-02-04T11:29:02.015Z,11.47
2019-02-04T11:31:32.202Z,12.43
2019-02-04T11:34:08.624Z,14.77
2019-02-04T11:36:46.479Z,12.77
2019-02-04T11:39:42.356Z,13.53
2019-02-04T11:42:13.634Z,12.30
2019-02-04T11:44:43.761Z,12.57
2019-02-04T11:47:14.000Z,11.43
2019-02-04T11:49:44.106Z,13.20
2019-02-04T11:52:14.166Z,13.97
2019-02-04T11:54:44.202Z,13.67
2019-02-04T11:57:14.745Z,13.50
2019-02-04T11:59:44.779Z,14.10
2019-02-04T12:02:14.961Z,13.27
2019-02-04T12:04:45.931Z,13.30
2019-02-04T12:07:16.560Z,13.40
2019-02-04T12:09:46.808Z,12.40
2019-02-04T12:12:17.035Z,13.70
2019-02-04T12:14:47.660Z,13.67
2019-02-04T12:17:18.091Z,13.60
2019-02-04T12:19:48.163Z,13.60
2019-02-04T12:22:18.397Z,13.90
2019-02-04T12:24:49.548Z,13.90
2019-02-04T12:27:32.076Z,14.03
2019-02-04T12:30:12.224Z,13.00
2019-02-04T12:32:47.872Z,12.97
2019-02-04T12:35:28.186Z,11.63
2019-02-04T12:37:59.532Z,13.43
2019-02-04T12:40:31.495Z,13.10
2019-02-04T12:43:02.717Z,12.10
2019-02-04T12:45:34.534Z,13.07
2019-02-04T12:48:05.111Z,14.00
2019-02-04T12:50:35.889Z,13.73
2019-02-04T12:53:06.808Z,13.73
2019-02-04T12:55:37.082Z,13.47
2019-02-04T12:58:07.650Z,21.10
2019-02-04T13:00:38.232Z,14.23
2019-02-04T13:03:08.398Z,12.93
2019-02-04T13:05:47.170Z,14.77
2019-02-04T13:08:17.336Z,13.80
2019-02-04T13:10:48.518Z,15.07
2019-02-04T13:13:22.072Z,12.90
2019-02-04T13:15:52.351Z,15.27
2019-02-04T13:18:23.076Z,14.10
2019-02-04T13:20:53.277Z,14.80
2019-02-04T13:23:23.309Z,13.13
2019-02-04T13:25:53.450Z,13.87
2019-02-04T13:28:23.869Z,14.53
2019-02-04T13:30:54.003Z,13.78
2019-02-04T13:33:24.314Z,14.03
2019-02-04T13:35:54.344Z,14.03
2019-02-04T13:38:24.620Z,13.20
2019-02-04T13:41:07.239Z,15.17
2019-02-04T13:43:27.831Z,13.53
2019-02-04T13:45:59.188Z,13.72
2019-02-04T13:48:29.846Z,14.17
2019-02-04T13:51:00.061Z,13.00
2019-02-04T13:53:42.000Z,14.27
2019-02-04T13:56:12.135Z,15.60
2019-02-04T13:58:42.312Z,16.07
2019-02-04T14:01:12.450Z,16.10
2019-02-04T14:03:42.658Z,15.07
2019-02-04T14:06:12.848Z,14.73
2019-02-04T14:08:44.559Z,14.07
2019-02-04T14:11:15.839Z,16.60
2019-02-04T14:13:49.064Z,15.00
2019-02-04T14:16:19.163Z,15.03
2019-02-04T14:18:52.178Z,15.30
2019-02-04T14:21:22.621Z,15.07
2019-02-04T14:23:52.791Z,15.40
2019-02-04T14:26:23.058Z,15.20
2019-02-04T14:28:53.815Z,14.33
2019-02-04T14:31:24.258Z,13.90
2019-02-04T14:33:54.573Z,15.30
2019-02-04T14:36:24.741Z,121.53
2019-02-04T14:38:54.911Z,54.63
2019-02-04T14:41:26.010Z,85.17
2019-02-04T14:44:03.071Z,20.47
2019-02-04T14:46:52.349Z,16.23
2019-02-04T14:49:50.065Z,16.23
2019-02-04T14:52:36.879Z,14.20
2019-02-04T14:55:30.397Z,14.03
2019-02-04T14:58:27.139Z,14.17
2019-02-04T15:01:35.547Z,13.40
2019-02-04T15:04:38.768Z,12.53
2019-02-04T15:07:46.781Z,12.40
2019-02-04T15:10:29.959Z,13.53
2019-02-04T15:13:30.773Z,13.43
2019-02-04T15:16:32.520Z,12.43
2019-02-04T15:19:40.910Z,12.83
2019-02-04T15:22:36.939Z,12.13
2019-02-04T15:25:46.272Z,13.00
2019-02-04T15:28:36.750Z,12.53
2019-02-04T15:31:38.015Z,10.80
2019-02-04T15:34:36.724Z,12.73
2019-02-04T15:37:16.535Z,11.87
2019-02-04T15:40:01.094Z,11.57
2019-02-04T15:43:09.830Z,12.83
2019-02-04T15:50:53.049Z,15.27
2019-02-04T15:53:43.958Z,14.60
2019-02-04T15:56:17.523Z,14.37
2019-02-04T15:58:47.579Z,16.10
2019-02-04T16:01:17.752Z,16.17
2019-02-04T16:03:49.098Z,16.50
2019-02-04T16:06:19.326Z,16.90
2019-02-04T16:08:59.035Z,16.40
2019-02-04T16:11:43.667Z,18.00
2019-02-04T16:14:15.332Z,17.40
2019-02-04T16:16:49.018Z,17.97
2019-02-04T16:19:19.755Z,20.43
2019-02-04T16:21:52.706Z,19.53
2019-02-04T16:24:23.678Z,19.90
2019-02-04T16:27:12.287Z,19.57
2019-02-04T16:30:04.346Z,20.37
2019-02-04T16:32:52.783Z,20.37
2019-02-04T16:35:47.928Z,21.10
2019-02-04T16:38:28.510Z,23.73
2019-02-04T16:41:01.468Z,20.87
2019-02-04T16:43:44.174Z,21.03
2019-02-04T16:46:29.677Z,22.40
2019-02-04T16:53:35.029Z,18.73
2019-02-04T16:56:24.590Z,19.27
2019-02-04T16:59:17.676Z,20.13
2019-02-04T17:02:09.067Z,21.83
2019-02-04T17:04:57.606Z,18.47
2019-02-04T17:07:50.639Z,19.77
2019-02-04T17:10:50.832Z,20.47
2019-02-04T17:13:48.867Z,20.07
2019-02-04T17:16:36.881Z,22.40
2019-02-04T17:19:09.647Z,21.83
2019-02-04T17:21:42.167Z,22.03
2019-02-04T17:24:12.678Z,24.17
2019-02-04T17:26:42.807Z,24.73
2019-02-04T17:29:16.414Z,22.20
2019-02-04T17:31:46.678Z,22.47
2019-02-04T17:34:17.423Z,18.20
2019-02-04T17:36:48.099Z,20.80
2019-02-04T17:39:19.490Z,20.70
2019-02-04T17:41:52.050Z,19.03
2019-02-04T17:44:22.290Z,20.47
2019-02-04T17:46:54.127Z,19.83
2019-02-04T17:49:24.383Z,19.17
2019-02-04T17:51:54.749Z,19.80
2019-02-04T17:54:25.280Z,21.63
2019-02-04T17:56:55.467Z,21.53
2019-02-04T17:59:25.448Z,20.27
2019-02-04T18:02:01.427Z,18.33
2019-02-04T18:04:39.620Z,17.97
2019-02-04T18:07:30.634Z,15.53
2019-02-04T18:10:24.125Z,16.17
2019-02-04T18:12:55.409Z,18.50
2019-02-04T18:16:00.126Z,14.23
2019-02-04T18:19:09.357Z,15.50
2019-02-04T18:22:11.728Z,18.37
2019-02-04T18:24:47.279Z,17.97
2019-02-04T18:27:38.072Z,16.90
2019-02-04T18:30:38.264Z,13.60
2019-02-04T18:33:16.223Z,15.43
2019-02-04T18:36:19.319Z,15.33
2019-02-04T18:38:51.710Z,14.93
2019-02-04T18:41:21.882Z,17.40
2019-02-04T18:43:56.896Z,14.70
2019-02-04T18:46:29.238Z,11.47
2019-02-04T18:48:59.361Z,9.07
2019-02-04T18:51:51.719Z,11.30
2019-02-04T18:54:41.717Z,14.70
2019-02-04T18:57:35.034Z,14.93
2019-02-04T19:00:49.084Z,18.80
2019-02-04T19:03:35.285Z,21.80
2019-02-04T19:06:11.507Z,23.03
2019-02-04T19:08:46.426Z,22.87
2019-02-04T19:11:30.576Z,17.43
2019-02-04T19:14:15.386Z,15.07
2019-02-04T19:16:57.537Z,9.23
2019-02-04T19:19:38.031Z,8.37
2019-02-04T19:22:21.308Z,9.47
2019-02-04T19:24:58.701Z,9.93
2019-02-04T19:27:43.348Z,10.73
2019-02-04T19:30:41.386Z,11.50
2019-02-04T19:33:17.021Z,9.70
2019-02-04T19:35:49.526Z,11.77
2019-02-04T19:38:49.110Z,13.23
2019-02-04T19:42:02.947Z,16.53
2019-02-04T19:45:01.338Z,18.07
2019-02-04T19:47:57.377Z,20.87
2019-02-04T19:51:20.680Z,17.50
2019-02-04T19:54:21.686Z,14.73
2019-02-04T19:56:50.131Z,11.90
2019-02-04T19:59:40.767Z,16.37
2019-02-04T20:02:42.278Z,15.07
2019-02-04T20:05:24.489Z,12.83
2019-02-04T20:08:16.783Z,14.30
2019-02-04T20:10:47.993Z,12.43
2019-02-04T20:13:37.071Z,11.47
2019-02-04T20:16:43.738Z,15.23
2019-02-04T20:19:31.341Z,11.10
2019-02-04T20:22:02.076Z,10.63
2019-02-04T20:24:33.502Z,12.10
2019-02-04T20:27:03.867Z,12.27
2019-02-04T20:29:34.323Z,13.40
2019-02-04T20:32:09.456Z,16.20
2019-02-04T20:35:00.805Z,15.30
2019-02-04T20:38:04.824Z,15.03
2019-02-04T20:40:35.934Z,17.17
2019-02-04T20:43:06.960Z,15.97
2019-02-04T20:45:56.374Z,15.40
2019-02-04T20:48:44.067Z,15.30
2019-02-04T20:51:25.540Z,14.87
2019-02-04T20:54:28.426Z,11.90
2019-02-04T20:57:24.750Z,13.13
2019-02-04T21:00:21.150Z,18.17
2019-02-04T21:03:18.479Z,19.07
2019-02-04T21:06:12.450Z,14.43
2019-02-04T21:08:56.720Z,12.07
2019-02-04T21:11:39.321Z,13.23
2019-02-04T21:14:21.103Z,14.20
2019-02-04T21:17:03.122Z,14.83
2019-02-04T21:19:38.798Z,15.63
2019-02-04T21:22:24.706Z,14.60
2019-02-04T21:25:10.835Z,14.80
2019-02-04T21:27:52.334Z,15.70
2019-02-04T21:30:42.043Z,17.87
2019-02-04T21:33:30.279Z,18.97
2019-02-04T21:36:13.642Z,16.23
2019-02-04T21:38:45.278Z,16.50
2019-02-04T21:41:19.951Z,15.87
2019-02-04T21:43:51.172Z,17.47
2019-02-04T21:46:21.986Z,16.00
2019-02-04T21:48:52.069Z,15.90
2019-02-04T21:51:22.303Z,27.73
2019-02-04T21:53:53.759Z,19.80
2019-02-04T21:56:27.390Z,21.27
2019-02-04T21:58:57.763Z,17.93
2019-02-04T22:01:27.966Z,20.87
2019-02-04T22:04:01.859Z,17.87
2019-02-04T22:06:37.991Z,16.17
2019-02-04T22:09:11.000Z,18.43
2019-02-04T22:11:43.457Z,20.33
2019-02-04T22:14:17.009Z,18.57
2019-02-04T22:16:51.165Z,17.27
2019-02-04T22:19:22.828Z,16.00
2019-02-04T22:21:53.296Z,13.07
2019-02-04T22:24:23.583Z,17.47
2019-02-04T22:26:53.573Z,17.83
2019-02-04T22:29:25.173Z,16.63
2019-02-04T22:31:57.853Z,18.53
2019-02-04T22:34:28.366Z,13.77
2019-02-04T22:37:17.522Z,15.33
2019-02-04T22:39:47.827Z,12.93
2019-02-04T22:42:17.876Z,15.90
2019-02-04T22:44:47.934Z,16.60
2019-02-04T22:47:18.195Z,16.90
2019-02-04T22:49:48.432Z,16.30
2019-02-04T22:52:18.514Z,15.20
2019-02-04T22:54:48.700Z,13.97
2019-02-04T22:57:18.786Z,15.30
2019-02-04T22:59:48.765Z,14.20
2019-02-04T23:02:18.905Z,12.67
2019-02-04T23:04:50.209Z,17.47
2019-02-04T23:07:20.456Z,16.00
2019-02-04T23:09:50.806Z,17.10
2019-02-04T23:12:21.079Z,16.57
2019-02-04T23:14:51.076Z,18.37
2019-02-04T23:17:21.275Z,16.17
2019-02-04T23:19:51.363Z,16.17
2019-02-04T23:22:21.439Z,14.83
2019-02-04T23:24:51.706Z,14.50
2019-02-04T23:27:22.081Z,17.30
2019-02-04T23:29:54.646Z,20.00
2019-02-04T23:32:24.906Z,15.47
2019-02-04T23:34:54.887Z,16.27
2019-02-04T23:37:25.229Z,18.93
2019-02-04T23:39:57.066Z,17.70
2019-02-04T23:42:27.206Z,17.27
2019-02-04T23:44:57.246Z,16.87
2019-02-04T23:47:39.579Z,16.60
2019-02-04T23:50:10.210Z,17.37
2019-02-04T23:52:41.482Z,16.93
2019-02-04T23:55:11.845Z,18.07
2019-02-04T23:57:41.914Z,16.13
